Time;durP1;ratioP1;P1;durP2;ratioP2;P2;SDS_P1;SDS_P2;PMS_P1;PMS_P2;Temp;Humidity;BMP_temperature;BMP_pressure;BME280_temperature;BME280_humidity;BME280_pressure;Samples;Min_cycle;Max_cycle;Signal;HPM_P1;HPM_P2
2023/05/04 00:01:38;;;;;;;1.87;1.77;;;20.30;54.20;21.10;101403.00;;;;5030318;28;20235;-54
2023/05/04 00:04:04;;;;;;;2.03;1.80;;;20.20;54.20;21.10;101394.00;;;;5029625;28;20183;-55
2023/05/04 00:06:30;;;;;;;1.93;1.83;;;20.30;54.20;21.10;101390.00;;;;5029040;28;20257;-54
2023/05/04 00:08:56;;;;;;;2.27;2.07;;;20.20;54.20;21.10;101390.00;;;;5029082;28;20215;-54
2023/05/04 00:11:21;;;;;;;2.20;2.00;;;20.20;54.20;21.10;101400.00;;;;5035577;28;20172;-55
2023/05/04 00:13:47;;;;;;;2.37;1.87;;;20.20;54.20;21.00;101402.00;;;;5051802;28;20173;-56
2023/05/04 00:16:13;;;;;;;2.07;1.97;;;20.20;54.30;21.00;101384.00;;;;5030493;28;20573;-54
2023/05/04 00:18:38;;;;;;;2.70;1.97;;;20.20;54.20;21.00;101385.00;;;;5030324;28;20572;-54
2023/05/04 00:21:05;;;;;;;2.37;2.17;;;20.20;54.20;21.00;101384.00;;;;5030818;28;20175;-55
2023/05/04 00:23:30;;;;;;;2.47;2.00;;;20.20;54.20;21.00;101378.00;;;;5030695;28;20526;-55
2023/05/04 00:25:59;;;;;;;1.97;1.73;;;20.20;54.20;20.90;101378.00;;;;5033885;28;20188;-55
2023/05/04 00:28:25;;;;;;;2.10;1.90;;;20.20;54.30;20.90;101370.00;;;;5046844;28;20217;-55
2023/05/04 00:30:54;;;;;;;2.13;1.93;;;20.20;54.30;20.90;101377.00;;;;5029841;28;20178;-55
2023/05/04 00:33:20;;;;;;;1.87;1.77;;;20.20;54.30;20.90;101375.00;;;;5029219;28;20173;-54
2023/05/04 00:35:46;;;;;;;2.10;1.90;;;20.10;54.40;20.90;101377.00;;;;5028962;28;20189;-53
2023/05/04 00:38:12;;;;;;;2.07;1.90;;;20.10;54.50;20.90;101375.00;;;;5028980;28;20192;-54
2023/05/04 00:40:39;;;;;;;2.10;1.90;;;20.10;54.20;20.80;101365.00;;;;5029011;28;20172;-54
2023/05/04 00:43:04;;;;;;;2.00;1.90;;;20.10;54.40;20.80;101373.00;;;;5028836;28;20255;-55
2023/05/04 00:45:30;;;;;;;2.27;2.07;;;20.10;54.40;20.80;101365.00;;;;5028793;28;20339;-55
2023/05/04 00:47:57;;;;;;;2.07;1.90;;;20.10;54.30;20.80;101368.00;;;;5028629;28;20244;-54
2023/05/04 00:50:23;;;;;;;1.80;1.70;;;20.10;54.40;20.80;101362.00;;;;5028763;28;20283;-54
2023/05/04 00:52:49;;;;;;;2.87;1.90;;;20.10;54.40;20.70;101351.00;;;;5027296;28;20172;-54
2023/05/04 00:55:15;;;;;;;1.80;1.70;;;20.00;54.40;20.70;101355.00;;;;5027315;28;20182;-54
2023/05/04 00:57:41;;;;;;;1.90;1.80;;;20.10;54.50;20.70;101344.00;;;;5028187;28;20186;-53
2023/05/04 01:00:07;;;;;;;2.00;1.80;;;20.00;54.30;20.70;101349.00;;;;5027102;28;20167;-55
2023/05/04 01:02:33;;;;;;;2.23;1.90;;;20.00;54.30;20.70;101356.00;;;;5031922;28;20184;-53
2023/05/04 01:05:00;;;;;;;2.03;1.93;;;20.00;54.40;20.60;101349.00;;;;5032465;28;20207;-54
2023/05/04 01:07:51;;;;;;;1.73;1.63;;;20.00;54.40;20.60;101337.00;;;;5031058;28;20284;-54
2023/05/04 01:10:51;;;;;;;1.80;1.70;;;19.90;54.30;20.60;101359.00;;;;5031219;28;20292;-54
2023/05/04 01:13:17;;;;;;;2.10;1.90;;;20.00;54.20;20.60;101346.00;;;;5020408;28;20236;-54
2023/05/04 01:15:43;;;;;;;1.90;1.80;;;19.90;54.20;20.60;101345.00;;;;5032311;28;20168;-54
2023/05/04 01:18:09;;;;;;;2.00;1.90;;;19.90;54.30;20.50;101346.00;;;;5032023;28;20187;-54
2023/05/04 01:20:35;;;;;;;2.03;1.90;;;19.90;53.90;20.50;101334.00;;;;5032368;28;20170;-54
2023/05/04 01:23:01;;;;;;;1.80;1.70;;;19.90;53.90;20.50;101343.00;;;;5032179;28;20228;-54
2023/05/04 01:25:45;;;;;;;1.80;1.70;;;19.90;53.90;20.50;101340.00;;;;5032098;28;20256;-55
2023/05/04 01:28:37;;;;;;;2.00;1.80;;;19.80;53.70;20.50;101329.00;;;;5030639;28;20200;-53
2023/05/04 01:31:03;;;;;;;2.00;1.90;;;19.80;53.90;20.40;101327.00;;;;5033949;28;20195;-55
2023/05/04 01:33:29;;;;;;;1.80;1.70;;;19.80;53.70;20.40;101335.00;;;;5034821;28;20169;-53
2023/05/04 01:35:54;;;;;;;1.97;1.87;;;19.80;53.70;20.40;101328.00;;;;5014332;28;20637;-55
2023/05/04 01:38:20;;;;;;;1.67;1.57;;;19.80;53.60;20.40;101324.00;;;;5030606;28;20190;-53
2023/05/04 01:40:46;;;;;;;1.90;1.80;;;19.80;53.70;20.30;101325.00;;;;5030840;28;20183;-53
2023/05/04 01:43:11;;;;;;;2.10;1.90;;;19.80;53.60;20.30;101329.00;;;;5032067;28;20578;-55
2023/05/04 01:45:37;;;;;;;1.90;1.80;;;19.80;53.60;20.30;101335.00;;;;5031713;28;20184;-55
2023/05/04 01:48:03;;;;;;;1.90;1.80;;;19.70;53.50;20.30;101323.00;;;;5031238;28;20278;-55
2023/05/04 01:50:29;;;;;;;1.93;1.83;;;19.70;53.60;20.30;101330.00;;;;5031693;28;20203;-55
2023/05/04 01:52:55;;;;;;;1.90;1.80;;;19.70;53.50;20.30;101328.00;;;;5031545;28;20189;-54
2023/05/04 01:55:20;;;;;;;2.00;1.80;;;19.70;53.60;20.20;101321.00;;;;5031531;28;20713;-55
2023/05/04 01:57:46;;;;;;;2.10;1.90;;;19.70;53.70;20.20;101326.00;;;;5031222;28;20220;-54
2023/05/04 02:00:13;;;;;;;1.90;1.80;;;19.70;53.60;20.20;101320.00;;;;5031454;28;20175;-55
2023/05/04 02:02:39;;;;;;;2.20;2.00;;;19.70;53.60;20.20;101330.00;;;;5030506;28;20254;-54
2023/05/04 02:05:06;;;;;;;2.07;1.87;;;19.70;53.70;20.20;101331.00;;;;5031450;28;20669;-54
2023/05/04 02:07:31;;;;;;;2.00;1.90;;;19.70;53.80;20.20;101336.00;;;;5029860;28;20199;-54
2023/05/04 02:09:57;;;;;;;2.67;2.00;;;19.60;53.60;20.10;101343.00;;;;5031121;28;20748;-54
2023/05/04 02:12:23;;;;;;;1.73;1.63;;;19.60;53.70;20.10;101330.00;;;;5033543;28;20182;-56
2023/05/04 02:14:48;;;;;;;1.90;1.80;;;19.60;53.60;20.10;101345.00;;;;5054755;28;20160;-56
2023/05/04 02:17:14;;;;;;;1.70;1.60;;;19.60;53.70;20.10;101333.00;;;;5036460;28;20194;-54
2023/05/04 02:19:40;;;;;;;1.80;1.70;;;19.60;53.80;20.10;101334.00;;;;5032552;28;20278;-55
2023/05/04 02:22:05;;;;;;;1.90;1.80;;;19.50;53.70;20.10;101327.00;;;;5033026;28;20226;-55
2023/05/04 02:24:31;;;;;;;1.93;1.80;;;19.60;53.70;20.10;101333.00;;;;5032657;28;20238;-54
2023/05/04 02:26:57;;;;;;;2.13;1.93;;;19.60;53.70;20.10;101327.00;;;;5034209;28;20612;-56
2023/05/04 02:29:23;;;;;;;1.80;1.70;;;19.60;53.70;20.00;101332.00;;;;5054531;28;20203;-56
2023/05/04 02:31:48;;;;;;;1.80;1.70;;;19.50;53.70;20.00;101331.00;;;;5034872;28;20179;-55
2023/05/04 02:34:14;;;;;;;2.27;1.80;;;19.50;53.70;20.00;101331.00;;;;5031302;28;20260;-54
2023/05/04 02:36:40;;;;;;;2.00;1.70;;;19.50;53.70;20.00;101327.00;;;;5030930;28;20175;-54
2023/05/04 02:39:06;;;;;;;1.80;1.70;;;19.50;53.80;20.00;101325.00;;;;5031019;28;20244;-54
2023/05/04 02:41:32;;;;;;;1.93;1.77;;;19.40;53.70;20.00;101329.00;;;;5031013;28;20241;-55
2023/05/04 02:43:58;;;;;;;1.90;1.80;;;19.40;53.70;19.90;101322.00;;;;5030937;28;20642;-54
2023/05/04 02:46:25;;;;;;;2.23;1.77;;;19.40;53.60;19.90;101325.00;;;;5030536;28;20188;-57
2023/05/04 02:48:51;;;;;;;2.13;1.90;;;19.40;53.60;19.90;101329.00;;;;5029349;28;20209;-55
2023/05/04 02:51:17;;;;;;;1.80;1.70;;;19.40;53.50;19.90;101323.00;;;;5030903;28;20167;-54
2023/05/04 02:53:43;;;;;;;2.10;1.90;;;19.40;53.50;19.90;101320.00;;;;5034994;28;20179;-55
2023/05/04 02:56:09;;;;;;;2.33;1.90;;;19.40;53.50;19.90;101319.00;;;;5038499;28;20661;-54
2023/05/04 02:58:35;;;;;;;2.47;1.80;;;19.40;53.50;19.80;101303.00;;;;5035866;28;20517;-54
2023/05/04 03:01:01;;;;;;;1.83;1.73;;;19.40;53.60;19.80;101316.00;;;;5031288;28;20186;-54
2023/05/04 03:03:26;;;;;;;1.90;1.80;;;19.30;53.50;19.80;101243.00;;;;5031636;28;20254;-53
2023/05/04 03:05:52;;;;;;;2.13;1.80;;;19.30;53.50;19.80;101310.00;;;;5030324;28;20258;-54
2023/05/04 03:08:18;;;;;;;1.90;1.80;;;19.40;53.70;19.80;101291.00;;;;5029854;28;20204;-55
2023/05/04 03:10:44;;;;;;;1.80;1.70;;;19.30;53.70;19.80;101308.00;;;;5028797;28;20172;-55
2023/05/04 03:13:09;;;;;;;3.33;1.93;;;19.30;53.90;19.80;101314.00;;;;5030156;28;20175;-54
2023/05/04 03:15:35;;;;;;;2.17;1.90;;;19.30;53.80;19.80;101299.00;;;;5030192;28;20716;-54
2023/05/04 03:18:01;;;;;;;1.90;1.77;;;19.30;53.60;19.70;101303.00;;;;5029785;28;20249;-54
2023/05/04 03:20:27;;;;;;;1.90;1.80;;;19.30;54.20;19.70;101296.00;;;;5030262;28;20174;-53
2023/05/04 03:22:52;;;;;;;1.93;1.83;;;19.30;53.70;19.70;101308.00;;;;5030241;28;20167;-54
2023/05/04 03:25:18;;;;;;;3.00;2.10;;;19.30;53.80;19.70;101303.00;;;;5030021;28;20203;-54
2023/05/04 03:27:44;;;;;;;1.80;1.70;;;19.30;53.80;19.70;101304.00;;;;5029821;28;20237;-55
2023/05/04 03:30:11;;;;;;;2.10;1.90;;;19.20;54.20;19.70;101303.00;;;;5030097;28;20257;-55
2023/05/04 03:32:36;;;;;;;2.60;2.00;;;19.20;53.60;19.70;101300.00;;;;5029892;28;20539;-54
2023/05/04 03:35:03;;;;;;;2.20;2.00;;;19.20;53.60;19.70;101293.00;;;;5030217;28;20182;-54
2023/05/04 03:37:28;;;;;;;2.23;2.00;;;19.20;53.80;19.70;101297.00;;;;5029656;28;20174;-53
2023/05/04 03:39:54;;;;;;;2.43;2.23;;;19.20;52.30;19.60;101301.00;;;;5029765;28;20254;-55
2023/05/04 03:42:20;;;;;;;3.00;2.50;;;19.10;49.70;19.50;101300.00;;;;5024177;28;20219;-55
2023/05/04 03:44:46;;;;;;;2.50;2.30;;;19.10;49.40;19.40;101304.00;;;;5023286;28;20558;-53
2023/05/04 03:47:11;;;;;;;3.20;2.23;;;19.00;48.80;19.40;101305.00;;;;5033045;28;20182;-54
2023/05/04 03:49:37;;;;;;;2.70;2.23;;;19.00;48.30;19.30;101294.00;;;;5030552;28;20202;-54
2023/05/04 03:52:03;;;;;;;3.10;2.47;;;19.00;48.40;19.30;101296.00;;;;5029714;28;20843;-54
2023/05/04 03:54:28;;;;;;;2.77;2.50;;;18.90;46.90;19.30;101296.00;;;;5031130;28;20167;-56
2023/05/04 03:56:54;;;;;;;3.60;2.40;;;18.90;46.90;19.20;101286.00;;;;5031336;28;20175;-54
2023/05/04 03:59:20;;;;;;;2.63;2.30;;;18.90;47.10;19.20;101290.00;;;;5030378;28;20205;-53
2023/05/04 04:01:46;;;;;;;3.83;2.70;;;18.80;46.20;19.20;101280.00;;;;5029328;28;20803;-56
2023/05/04 04:04:11;;;;;;;3.00;2.70;;;18.80;46.70;19.10;101280.00;;;;5028890;28;20183;-53
2023/05/04 04:06:37;;;;;;;4.03;2.50;;;18.80;46.70;19.10;101277.00;;;;5031897;28;20661;-55
2023/05/04 04:09:03;;;;;;;6.00;2.40;;;18.70;45.90;19.10;101278.00;;;;5031312;28;20207;-57
2023/05/04 04:11:29;;;;;;;4.33;2.40;;;18.70;45.40;19.10;101273.00;;;;5030757;28;20183;-53
2023/05/04 04:13:54;;;;;;;6.63;2.73;;;18.70;44.70;19.00;101279.00;;;;5041388;28;20250;-56
2023/05/04 04:16:20;;;;;;;2.40;2.20;;;18.60;44.60;19.00;101270.00;;;;5050400;28;20221;-54
2023/05/04 04:18:46;;;;;;;4.63;2.30;;;18.60;44.30;19.00;101267.00;;;;5031041;28;20405;-55
2023/05/04 04:21:12;;;;;;;3.47;2.30;;;18.60;44.60;19.00;101277.00;;;;5031414;28;20178;-54
2023/05/04 04:23:37;;;;;;;3.50;2.37;;;18.50;44.90;18.90;101266.00;;;;5029698;28;20641;-53
2023/05/04 04:26:05;;;;;;;3.77;2.77;;;18.50;44.20;18.90;101268.00;;;;5030521;28;20175;-54
2023/05/04 04:28:32;;;;;;;3.10;2.40;;;18.50;44.00;18.90;101273.00;;;;5040275;28;20216;-54
2023/05/04 04:30:58;;;;;;;3.27;2.50;;;18.50;43.70;18.80;101276.00;;;;5047293;28;20177;-55
2023/05/04 04:33:24;;;;;;;2.90;2.60;;;18.40;43.70;18.80;101283.00;;;;5028296;28;20269;-55
2023/05/04 04:35:50;;;;;;;4.77;2.37;;;18.40;43.70;18.80;101281.00;;;;5029603;28;20544;-54
2023/05/04 04:38:16;;;;;;;4.33;2.50;;;18.40;44.90;18.80;101280.00;;;;5029494;28;20213;-53
2023/05/04 04:40:42;;;;;;;2.83;2.30;;;18.30;46.10;18.70;101291.00;;;;5029106;28;20180;-53
2023/05/04 04:43:08;;;;;;;5.00;2.10;;;18.30;46.60;18.80;101289.00;;;;5028997;28;20189;-54
2023/05/04 04:45:34;;;;;;;4.03;2.43;;;18.30;46.90;18.80;101282.00;;;;5028949;28;20237;-55
2023/05/04 04:48:00;;;;;;;4.00;2.20;;;18.30;47.40;18.80;101289.00;;;;5027256;28;20193;-54
2023/05/04 04:50:26;;;;;;;3.67;2.30;;;18.30;47.60;18.80;101283.00;;;;5027723;28;20210;-54
2023/05/04 04:52:52;;;;;;;2.80;2.30;;;18.40;47.90;18.80;101288.00;;;;5028714;28;20181;-54
2023/05/04 04:55:19;;;;;;;3.63;2.10;;;18.40;48.00;18.80;101298.00;;;;5019087;28;20310;-54
2023/05/04 04:57:44;;;;;;;3.43;2.10;;;18.40;48.20;18.80;101298.00;;;;5016040;28;20199;-55
2023/05/04 05:00:14;;;;;;;2.90;2.10;;;18.40;48.30;18.80;101272.00;;;;5008664;28;20183;-55
2023/05/04 05:02:39;;;;;;;2.70;2.17;;;18.30;48.30;18.80;101285.00;;;;5007362;28;20186;-55
2023/05/04 05:05:06;;;;;;;2.77;2.30;;;18.40;48.80;18.80;101290.00;;;;5008569;28;20172;-54
2023/05/04 05:07:32;;;;;;;3.83;2.27;;;18.40;48.90;18.80;101295.00;;;;5007727;28;20178;-55
2023/05/04 05:09:57;;;;;;;2.27;1.97;;;18.30;48.80;18.80;101298.00;;;;5007581;28;20203;-54
2023/05/04 05:12:23;;;;;;;2.80;2.20;;;18.30;48.80;18.80;101301.00;;;;5009202;28;20194;-55
2023/05/04 05:14:49;;;;;;;3.23;2.43;;;18.40;48.90;18.80;101298.00;;;;5009295;28;20194;-56
2023/05/04 05:17:15;;;;;;;4.33;2.10;;;18.30;49.10;18.80;101296.00;;;;5008610;28;20233;-54
2023/05/04 05:19:41;;;;;;;2.60;2.20;;;18.30;49.30;18.80;101299.00;;;;5010760;28;20223;-54
2023/05/04 05:22:07;;;;;;;4.63;2.20;;;18.40;49.60;18.80;101281.00;;;;5009765;28;20749;-55
2023/05/04 05:24:33;;;;;;;2.77;2.10;;;18.40;49.70;18.80;101304.00;;;;5008951;28;20195;-55
2023/05/04 05:26:59;;;;;;;3.40;2.40;;;18.40;50.00;18.80;101305.00;;;;5006577;28;20255;-53
2023/05/04 05:29:25;;;;;;;2.70;2.10;;;18.40;50.20;18.80;101287.00;;;;5007972;28;20211;-53
2023/05/04 05:31:51;;;;;;;2.47;2.27;;;18.40;50.50;18.80;101292.00;;;;5009924;28;20174;-54
2023/05/04 05:34:16;;;;;;;3.03;2.20;;;18.40;50.90;18.80;101294.00;;;;5009264;28;20172;-54
2023/05/04 05:36:43;;;;;;;6.47;2.53;;;18.40;51.10;18.80;101292.00;;;;5008448;28;20270;-54
2023/05/04 05:39:10;;;;;;;2.50;2.10;;;18.30;51.10;18.80;101297.00;;;;5008664;28;20741;-55
2023/05/04 05:41:36;;;;;;;3.77;2.23;;;18.40;51.50;18.80;101291.00;;;;5025885;28;20171;-53
2023/05/04 05:44:01;;;;;;;2.57;2.30;;;18.30;51.60;18.80;101301.00;;;;5026037;28;20181;-55
2023/05/04 05:46:27;;;;;;;2.53;2.23;;;18.30;51.70;18.80;101287.00;;;;5027607;28;20185;-53
2023/05/04 05:48:53;;;;;;;3.17;2.30;;;18.30;51.70;18.90;101284.00;;;;5030261;28;20205;-54
2023/05/04 05:51:19;;;;;;;3.10;2.20;;;18.40;51.90;18.80;101288.00;;;;5032433;28;20166;-54
2023/05/04 05:53:45;;;;;;;2.60;2.20;;;18.30;51.90;18.80;101283.00;;;;5031770;28;20175;-54
2023/05/04 05:56:11;;;;;;;3.10;2.30;;;18.30;51.80;18.80;101283.00;;;;5032048;28;20174;-54
2023/05/04 05:58:38;;;;;;;2.30;2.07;;;18.30;51.80;18.80;101291.00;;;;5031883;28;20194;-54
2023/05/04 06:01:04;;;;;;;4.23;2.20;;;18.40;51.90;18.80;101287.00;;;;5032205;28;20683;-54
2023/05/04 06:03:29;;;;;;;3.80;2.30;;;18.30;51.70;18.80;101280.00;;;;5031758;28;20175;-54
2023/05/04 06:05:55;;;;;;;3.07;2.20;;;18.30;52.30;18.80;101282.00;;;;5032071;28;20226;-54
2023/05/04 06:08:21;;;;;;;3.90;2.20;;;18.30;51.60;18.80;101286.00;;;;5032122;28;20188;-55
2023/05/04 06:10:47;;;;;;;2.73;2.20;;;18.30;51.60;18.80;101276.00;;;;5032320;28;20237;-54
2023/05/04 06:13:13;;;;;;;2.40;2.20;;;18.30;51.60;18.80;101282.00;;;;5031905;28;20170;-55
2023/05/04 06:15:38;;;;;;;2.33;2.13;;;18.30;51.60;18.80;101275.00;;;;5054081;28;20163;-55
2023/05/04 06:18:04;;;;;;;2.30;2.10;;;18.30;51.60;18.80;101275.00;;;;5041583;28;20762;-55
2023/05/04 06:20:30;;;;;;;3.13;2.10;;;18.30;51.60;18.80;101273.00;;;;5032692;28;20185;-54
2023/05/04 06:22:56;;;;;;;2.53;2.30;;;18.30;51.60;18.80;101267.00;;;;5031952;28;20234;-54
2023/05/04 06:25:22;;;;;;;2.40;2.20;;;18.30;51.60;18.80;101236.00;;;;5031269;28;20177;-53
2023/05/04 06:27:47;;;;;;;2.90;2.23;;;18.20;51.60;18.70;101258.00;;;;5032545;28;20222;-54
2023/05/04 06:30:14;;;;;;;4.97;2.30;;;18.30;51.80;18.70;101274.00;;;;5053986;28;20194;-55
2023/05/04 06:32:40;;;;;;;6.70;2.57;;;18.30;52.00;18.70;101260.00;;;;5044052;28;20174;-55
2023/05/04 06:35:07;;;;;;;2.23;2.03;;;18.20;51.90;18.80;101268.00;;;;5031478;28;20652;-54
2023/05/04 06:37:33;;;;;;;7.23;2.70;;;18.20;51.90;18.80;101264.00;;;;5031253;28;20173;-54
2023/05/04 06:39:59;;;;;;;5.47;2.50;;;18.20;52.00;18.80;101252.00;;;;5031598;28;20240;-54
2023/05/04 06:42:30;;;;;;;6.20;2.50;;;18.30;52.20;18.80;101257.00;;;;5031376;28;20181;-52
2023/05/04 06:44:56;;;;;;;6.60;2.50;;;18.20;52.40;18.80;101262.00;;;;5031036;28;20656;-53
2023/05/04 06:47:22;;;;;;;3.97;2.10;;;18.20;52.30;18.80;101256.00;;;;5031530;28;20243;-53
2023/05/04 06:49:48;;;;;;;5.73;2.57;;;18.20;52.30;18.80;101257.00;;;;5031174;28;20828;-53
2023/05/04 06:52:14;;;;;;;4.57;2.70;;;18.20;52.20;18.80;101260.00;;;;5031026;28;20177;-51
2023/05/04 06:54:39;;;;;;;4.70;2.37;;;18.20;52.30;18.80;101257.00;;;;5029425;28;20237;-53
2023/05/04 06:57:05;;;;;;;3.90;2.13;;;18.20;52.40;18.80;101261.00;;;;5031060;28;20691;-55
2023/05/04 06:59:31;;;;;;;3.40;2.30;;;18.20;52.50;18.80;101264.00;;;;5030932;28;20237;-53
2023/05/04 07:01:57;;;;;;;6.77;2.43;;;18.20;52.50;18.80;101265.00;;;;5031585;28;20178;-53
2023/05/04 07:04:22;;;;;;;3.67;2.53;;;18.20;52.60;18.80;101264.00;;;;5030850;28;20179;-53
2023/05/04 07:06:49;;;;;;;3.70;2.23;;;18.20;52.60;18.80;101264.00;;;;5030988;28;20572;-53
2023/05/04 07:09:17;;;;;;;4.40;2.13;;;18.10;52.60;18.80;101261.00;;;;5031180;28;20280;-52
2023/05/04 07:11:42;;;;;;;5.50;2.30;;;18.20;52.80;18.80;101262.00;;;;5031513;28;20173;-55
2023/05/04 07:14:08;;;;;;;2.33;2.10;;;18.20;52.80;18.80;101259.00;;;;5031329;28;20225;-52
2023/05/04 07:16:37;;;;;;;2.53;2.17;;;18.20;52.90;18.80;101261.00;;;;5031272;28;20512;-53
2023/05/04 07:19:05;;;;;;;3.10;2.00;;;18.20;53.00;18.90;101257.00;;;;5031444;28;20243;-52
2023/05/04 07:21:31;;;;;;;3.20;2.30;;;18.20;53.10;18.80;101255.00;;;;5031169;28;20253;-52
2023/05/04 07:23:57;;;;;;;3.63;2.23;;;18.20;53.10;18.90;101246.00;;;;5031340;28;20663;-53
2023/05/04 07:26:23;;;;;;;3.27;2.20;;;18.20;53.10;18.90;101245.00;;;;5031146;28;20179;-52
2023/05/04 07:28:49;;;;;;;3.57;2.30;;;18.20;53.10;18.90;101246.00;;;;5030687;28;20205;-52
2023/05/04 07:31:14;;;;;;;3.40;2.00;;;18.20;53.10;18.90;101244.00;;;;5030709;28;20639;-52
2023/05/04 07:33:40;;;;;;;2.30;2.10;;;18.20;53.20;18.90;101241.00;;;;5031001;28;20178;-52
2023/05/04 07:36:06;;;;;;;3.00;2.10;;;18.20;53.80;18.90;101238.00;;;;5030782;28;20173;-53
2023/05/04 07:38:32;;;;;;;2.17;1.90;;;18.10;53.20;18.90;101240.00;;;;5030746;28;20204;-52
2023/05/04 07:40:58;;;;;;;2.27;2.07;;;18.20;53.30;18.90;101243.00;;;;5030891;28;20190;-54
2023/05/04 07:43:24;;;;;;;3.20;2.07;;;18.10;53.30;18.90;101246.00;;;;5029568;28;20171;-52
2023/05/04 07:45:52;;;;;;;2.90;2.27;;;18.10;53.40;18.90;101232.00;;;;5030427;28;20167;-52
2023/05/04 07:48:17;;;;;;;2.73;2.30;;;18.10;53.40;18.90;101226.00;;;;5030683;28;20183;-53
2023/05/04 07:50:43;;;;;;;2.63;2.27;;;18.20;53.60;18.90;101237.00;;;;5033194;28;20301;-53
2023/05/04 07:53:09;;;;;;;2.20;2.07;;;18.20;53.70;18.90;101228.00;;;;5033974;28;20180;-52
2023/05/04 07:55:35;;;;;;;2.53;2.00;;;18.10;53.60;18.90;101225.00;;;;5033174;28;20664;-53
2023/05/04 07:58:01;;;;;;;3.10;2.17;;;18.10;53.60;18.90;101225.00;;;;5030741;28;20194;-53
2023/05/04 08:00:27;;;;;;;3.20;2.20;;;18.10;53.70;18.90;101223.00;;;;5030582;28;20170;-52
2023/05/04 08:02:53;;;;;;;2.40;2.00;;;18.10;53.70;18.90;101230.00;;;;5031026;28;20184;-52
2023/05/04 08:05:19;;;;;;;2.97;2.20;;;18.20;53.90;18.90;101235.00;;;;5032627;28;20177;-53
2023/05/04 08:07:45;;;;;;;2.43;2.20;;;18.10;53.90;18.90;101224.00;;;;5031828;28;20195;-54
2023/05/04 08:10:11;;;;;;;2.20;2.00;;;18.20;54.00;18.90;101213.00;;;;5030515;28;20197;-52
2023/05/04 08:12:39;;;;;;;2.33;2.13;;;18.20;54.10;19.00;101217.00;;;;5030626;28;20261;-55
2023/05/04 08:15:06;;;;;;;2.47;2.20;;;18.20;54.10;19.00;101212.00;;;;5030825;28;20187;-53
2023/05/04 08:17:33;;;;;;;2.60;2.20;;;18.20;54.10;19.00;101222.00;;;;5030340;28;20185;-53
2023/05/04 08:20:00;;;;;;;2.43;2.10;;;18.20;54.20;19.00;101211.00;;;;5034439;28;20198;-56
2023/05/04 08:22:25;;;;;;;2.40;2.20;;;18.20;54.20;19.00;101206.00;;;;5050915;28;20184;-55
2023/05/04 08:24:51;;;;;;;2.93;2.20;;;18.20;54.30;19.00;101203.00;;;;5048240;28;20175;-54
2023/05/04 08:27:17;;;;;;;2.33;2.10;;;18.20;54.30;19.00;101201.00;;;;5044972;28;20190;-57
2023/05/04 08:29:44;;;;;;;2.30;2.10;;;18.10;54.30;19.00;101191.00;;;;5032027;28;20316;-55
2023/05/04 08:32:09;;;;;;;2.47;2.00;;;18.20;54.50;19.00;101197.00;;;;5031274;28;20253;-53
2023/05/04 08:34:36;;;;;;;2.30;2.10;;;18.20;54.50;19.00;101209.00;;;;5036978;28;20234;-56
2023/05/04 08:37:02;;;;;;;2.30;2.10;;;18.20;54.50;19.00;101198.00;;;;5042742;28;20630;-53
2023/05/04 08:39:28;;;;;;;2.93;2.27;;;18.20;54.50;19.00;101194.00;;;;5030703;28;20198;-54
2023/05/04 08:41:53;;;;;;;2.73;2.10;;;18.20;54.70;19.00;101195.00;;;;5029002;28;20183;-54
2023/05/04 08:44:20;;;;;;;2.20;2.00;;;18.20;54.70;19.00;101202.00;;;;5031207;28;20211;-54
2023/05/04 08:46:52;;;;;;;2.43;2.00;;;18.20;54.80;19.00;101188.00;;;;5030026;28;20186;-53
2023/05/04 08:49:22;;;;;;;3.10;2.03;;;18.20;54.90;19.00;101194.00;;;;5029433;28;20210;-54
2023/05/04 08:51:49;;;;;;;2.50;2.30;;;18.20;55.10;19.10;101191.00;;;;5024896;28;20270;-53
2023/05/04 08:54:15;;;;;;;3.40;2.10;;;18.20;55.20;19.10;101186.00;;;;5028009;28;20648;-53
2023/05/04 08:56:41;;;;;;;2.20;2.00;;;18.20;55.20;19.10;101183.00;;;;5029065;28;20178;-52
2023/05/04 08:59:08;;;;;;;2.23;2.03;;;18.20;55.20;19.10;101175.00;;;;5029384;28;20187;-54
2023/05/04 09:01:34;;;;;;;4.07;2.20;;;18.20;55.30;19.10;101177.00;;;;5027849;28;20175;-53
2023/05/04 09:04:00;;;;;;;2.93;2.30;;;18.20;55.50;19.10;101174.00;;;;5028011;28;20190;-52
2023/05/04 09:06:27;;;;;;;5.03;2.50;;;18.20;55.70;19.10;101155.00;;;;5026962;28;20185;-54
2023/05/04 09:08:52;;;;;;;3.40;2.03;;;18.20;55.90;19.10;101179.00;;;;5027955;28;20211;-53
2023/05/04 09:11:18;;;;;;;2.30;2.10;;;18.30;56.10;19.10;101174.00;;;;5024005;28;20547;-53
2023/05/04 09:13:44;;;;;;;4.53;2.30;;;18.30;56.10;19.10;101176.00;;;;5009322;28;20249;-54
2023/05/04 09:16:10;;;;;;;2.30;2.10;;;18.30;56.30;19.10;101180.00;;;;5009297;28;20240;-55
2023/05/04 09:18:41;;;;;;;4.90;2.40;;;18.30;56.50;19.20;101178.00;;;;5009295;28;20776;-54
2023/05/04 09:21:07;;;;;;;2.10;2.00;;;18.30;56.60;19.20;101179.00;;;;5008160;28;20176;-53
2023/05/04 09:23:48;;;;;;;2.73;2.30;;;18.30;56.60;19.20;101177.00;;;;5012811;28;20174;-53
2023/05/04 09:26:14;;;;;;;2.10;1.90;;;18.30;56.70;19.10;101183.00;;;;5011536;28;20186;-53
2023/05/04 09:28:40;;;;;;;3.40;2.10;;;18.40;56.80;19.20;101171.00;;;;4994967;28;20210;-53
2023/05/04 09:31:06;;;;;;;2.20;2.10;;;18.40;56.80;19.20;101176.00;;;;5013141;28;20532;-53
2023/05/04 09:33:33;;;;;;;2.50;2.30;;;18.40;56.90;19.20;101176.00;;;;5013134;28;20171;-55
2023/05/04 09:36:00;;;;;;;2.53;2.20;;;18.40;57.00;19.20;101161.00;;;;5011499;28;20207;-52
2023/05/04 09:38:32;;;;;;;3.83;2.20;;;18.40;57.00;19.20;101170.00;;;;5010874;28;20670;-52
2023/05/04 09:40:58;;;;;;;2.53;2.13;;;18.40;56.90;19.20;101166.00;;;;5012886;28;20190;-56
2023/05/04 09:43:24;;;;;;;2.30;2.10;;;18.50;56.90;19.20;101156.00;;;;5012865;28;20552;-52
2023/05/04 09:45:50;;;;;;;3.40;2.10;;;18.40;56.90;19.20;101148.00;;;;5018515;28;20181;-51
2023/05/04 09:48:25;;;;;;;4.53;2.70;;;18.50;57.30;19.30;101131.00;;;;5032090;28;20195;-52
2023/05/04 09:50:56;;;;;;;6.03;3.40;;;18.50;57.50;19.30;101132.00;;;;5030952;28;20208;-54
2023/05/04 09:53:24;;;;;;;9.87;3.93;;;18.60;57.80;19.30;101138.00;;;;5031210;28;20198;-53
2023/05/04 09:56:11;;;;;;;7.10;4.20;;;18.60;57.90;19.30;101132.00;;;;5030948;28;20640;-55
2023/05/04 09:58:37;;;;;;;9.60;4.03;;;18.60;57.70;19.30;101129.00;;;;5030602;28;20672;-55
2023/05/04 10:01:03;;;;;;;9.17;4.20;;;18.60;57.70;19.40;101131.00;;;;5031214;28;20190;-53
2023/05/04 10:03:30;;;;;;;9.73;4.13;;;18.60;57.80;19.40;101126.00;;;;5032334;28;20190;-54
2023/05/04 10:05:59;;;;;;;7.33;4.10;;;18.60;57.80;19.40;101117.00;;;;5030562;28;20589;-57
2023/05/04 10:08:26;;;;;;;9.23;4.23;;;18.60;57.70;19.50;101113.00;;;;5032850;28;20249;-55
2023/05/04 10:10:51;;;;;;;8.47;4.10;;;18.70;57.80;19.50;101114.00;;;;5031581;28;20206;-54
2023/05/04 10:13:17;;;;;;;9.53;3.77;;;18.70;57.80;19.50;101106.00;;;;5031157;28;20167;-53
2023/05/04 10:16:12;;;;;;;7.47;3.80;;;18.70;58.20;19.50;101111.00;;;;5031977;28;20636;-53
2023/05/04 10:19:10;;;;;;;7.83;3.90;;;18.70;57.80;19.60;101109.00;;;;5030669;28;20207;-56
2023/05/04 10:22:16;;;;;;;6.43;3.63;;;18.70;57.80;19.60;101103.00;;;;5033453;28;20179;-53
2023/05/04 10:24:56;;;;;;;9.27;3.90;;;18.80;57.80;19.60;101113.00;;;;5034676;28;20869;-55
2023/05/04 10:28:13;;;;;;;6.60;3.77;;;18.80;58.30;19.70;101110.00;;;;5050602;28;20201;-55
2023/05/04 10:30:39;;;;;;;6.73;3.63;;;18.80;57.70;19.60;101099.00;;;;5032386;28;20202;-54
2023/05/04 10:33:05;;;;;;;5.83;3.53;;;18.80;57.90;19.70;101091.00;;;;5032401;28;20182;-55
2023/05/04 10:35:31;;;;;;;7.07;3.37;;;18.90;57.90;19.70;101084.00;;;;5030446;28;20179;-54
2023/05/04 10:37:57;;;;;;;6.67;3.50;;;18.90;57.90;19.70;101083.00;;;;5032387;28;20198;-53
2023/05/04 10:40:36;;;;;;;6.57;3.70;;;18.90;58.30;19.70;101081.00;;;;5053091;28;20167;-56
2023/05/04 10:43:01;;;;;;;8.60;4.07;;;19.00;58.70;19.70;101084.00;;;;5041166;28;20603;-56
2023/05/04 10:45:38;;;;;;;5.30;3.63;;;19.00;58.30;19.70;101071.00;;;;5030708;28;20178;-56
2023/05/04 10:48:04;;;;;;;8.30;3.40;;;19.00;58.20;19.80;101055.00;;;;5031551;28;20202;-58